Time;durP1;ratioP1;P1;durP2;ratioP2;P2;SDS_P1;SDS_P2;PMS_P1;PMS_P2;Temp;Humidity;BMP_temperature;BMP_pressure;BME280_temperature;BME280_humidity;BME280_pressure;Samples;Min_cycle;Max_cycle;Signal;HPM_P1;HPM_P2
2021/12/04 00:01:25;;;;;;;2.90;1.60;;;;;;;-11.54;92.55;101119.09;5074264;28;20055;-63
2021/12/04 00:03:53;;;;;;;3.83;1.65;;;;;;;-11.63;92.54;101114.56;5074149;28;20136;-63
2021/12/04 00:06:24;;;;;;;5.90;1.75;;;;;;;-11.56;92.71;101123.19;5073974;28;20521;-64
2021/12/04 00:08:51;;;;;;;1.50;1.40;;;;;;;-11.58;93.06;101121.41;5073797;28;20076;-62
2021/12/04 00:11:18;;;;;;;1.23;1.13;;;;;;;-11.52;92.89;101122.53;5074004;28;20143;-62
2021/12/04 00:13:46;;;;;;;2.05;1.58;;;;;;;-11.51;93.42;101119.22;5073633;28;20510;-64
2021/12/04 00:16:13;;;;;;;4.53;1.42;;;;;;;-11.54;92.83;101118.25;5073757;28;20056;-63
2021/12/04 00:18:40;;;;;;;2.17;1.40;;;;;;;-11.52;92.85;101125.03;5073679;28;20410;-63
2021/12/04 00:21:08;;;;;;;;;;;;;;;-11.49;93.37;101127.66;5073925;28;20487;-63
2021/12/04 00:23:36;;;;;;;2.35;1.63;;;;;;;-11.52;93.37;101126.69;5073532;28;20019;-64
2021/12/04 00:26:04;;;;;;;2.15;1.75;;;;;;;-11.50;93.36;101138.50;5074185;28;20075;-63
2021/12/04 00:28:31;;;;;;;1.58;1.30;;;;;;;-11.56;93.46;101145.78;5073981;28;20135;-63
2021/12/04 00:30:58;;;;;;;1.85;0.93;;;;;;;-11.45;93.61;101138.72;5073620;28;20123;-63
2021/12/04 00:33:30;;;;;;;2.03;1.80;;;;;;;-11.46;93.28;101150.38;5073275;28;20135;-64
2021/12/04 00:35:59;;;;;;;4.97;2.30;;;;;;;-11.55;93.55;101145.00;5073436;28;20070;-63
2021/12/04 00:49:25;;;;;;;1.20;1.20;;;;;;;-11.38;92.83;101162.41;5073185;28;20063;-66
2021/12/04 00:51:54;;;;;;;2.45;1.50;;;;;;;-11.43;93.28;101162.22;5073017;28;20135;-64
2021/12/04 00:54:24;;;;;;;1.48;1.38;;;;;;;-11.42;93.08;101163.94;5072977;28;20068;-65
2021/12/04 00:56:51;;;;;;;0.80;0.80;;;;;;;-11.40;93.20;101168.22;5072441;28;20139;-65
2021/12/04 00:59:19;;;;;;;1.13;1.10;;;;;;;-11.37;93.00;101167.50;5073610;28;20127;-64
2021/12/04 01:01:46;;;;;;;1.30;1.10;;;;;;;-11.41;92.72;101165.66;5072922;28;20139;-64
2021/12/04 01:04:16;;;;;;;2.20;1.75;;;;;;;-11.49;93.52;101172.88;5072925;28;20215;-61
2021/12/04 01:06:43;;;;;;;2.50;1.70;;;;;;;-11.43;92.89;101175.66;5072901;28;20143;-62
2021/12/04 01:09:12;;;;;;;1.85;1.60;;;;;;;-11.48;93.57;101174.59;5072822;28;20562;-64
2021/12/04 01:11:43;;;;;;;4.15;2.15;;;;;;;-11.46;93.63;101174.66;5073133;28;20070;-64
2021/12/04 01:14:12;;;;;;;2.17;1.80;;;;;;;-11.48;93.16;101179.63;5072449;28;20140;-64
2021/12/04 01:16:39;;;;;;;3.80;1.55;;;;;;;-11.50;93.47;101185.38;5072752;28;20049;-63
2021/12/04 01:19:06;;;;;;;1.48;1.38;;;;;;;-11.46;92.89;101182.19;5073040;28;20075;-63
2021/12/04 01:21:33;;;;;;;2.75;1.60;;;;;;;-11.57;93.53;101183.41;5072621;28;20584;-63
2021/12/04 01:24:00;;;;;;;3.30;1.55;;;;;;;-11.51;92.86;101193.69;5072284;28;20079;-63
2021/12/04 01:26:28;;;;;;;2.38;1.70;;;;;;;-11.58;93.84;101194.22;5072715;28;20063;-64
2021/12/04 01:28:56;;;;;;;1.08;1.08;;;;;;;-11.55;93.13;101190.22;5072530;28;20139;-63
2021/12/04 01:31:23;;;;;;;1.40;1.30;;;;;;;-11.37;93.20;101204.31;5072672;28;20143;-64
2021/12/04 01:33:50;;;;;;;;;;;;;;;-11.45;93.08;101196.47;5072994;28;20068;-64
2021/12/04 01:36:19;;;;;;;1.55;1.40;;;;;;;-11.49;92.88;101203.00;5072271;28;20020;-63
2021/12/04 01:38:46;;;;;;;1.27;1.23;;;;;;;-11.42;93.38;101201.63;5072502;28;20080;-64
2021/12/04 01:41:13;;;;;;;2.65;1.80;;;;;;;-11.57;93.26;101200.97;5072553;28;20148;-63
2021/12/04 01:43:40;;;;;;;5.75;1.70;;;;;;;-11.49;92.91;101203.00;5072531;28;20132;-63
2021/12/04 01:46:09;;;;;;;1.45;1.35;;;;;;;-11.51;93.51;101212.13;5072510;28;20059;-64
2021/12/04 01:48:36;;;;;;;4.03;1.65;;;;;;;-11.57;92.82;101211.88;5072543;28;20478;-63
2021/12/04 01:51:03;;;;;;;2.83;1.77;;;;;;;-11.53;92.77;101215.38;5072028;28;20131;-64
2021/12/04 01:53:30;;;;;;;2.72;1.77;;;;;;;-11.57;93.08;101216.03;5071768;28;20139;-63
2021/12/04 01:55:59;;;;;;;2.47;1.60;;;;;;;-11.64;93.08;101217.44;5072099;28;20049;-63
2021/12/04 01:58:28;;;;;;;5.85;1.50;;;;;;;-11.72;92.98;101214.59;5072571;28;20128;-64
2021/12/04 02:00:55;;;;;;;2.50;2.25;;;;;;;-11.68;93.26;101223.13;5071857;28;20479;-63
2021/12/04 02:03:24;;;;;;;2.38;1.70;;;;;;;-11.86;93.36;101223.22;5071813;28;20040;-64
2021/12/04 02:05:52;;;;;;;4.45;1.85;;;;;;;-11.93;92.84;101227.13;5071863;28;20139;-64
2021/12/04 02:08:20;;;;;;;1.77;1.38;;;;;;;-11.89;94.03;101231.50;5071763;28;20574;-62
2021/12/04 02:10:50;;;;;;;1.50;1.40;;;;;;;-11.75;93.52;101238.72;5071889;28;20534;-64
2021/12/04 02:13:18;;;;;;;2.53;1.50;;;;;;;-11.76;92.55;101239.50;5071820;28;20501;-63
2021/12/04 02:15:46;;;;;;;7.53;2.03;;;;;;;-11.83;93.98;101243.41;5071992;28;20040;-63
2021/12/04 02:18:14;;;;;;;1.55;1.45;;;;;;;-11.73;93.20;101243.00;5071899;28;20644;-62
2021/12/04 02:20:42;;;;;;;2.25;1.77;;;;;;;-11.77;92.96;101252.84;5072437;28;20047;-63
2021/12/04 02:23:10;;;;;;;2.30;1.85;;;;;;;-11.78;93.35;101254.50;5072191;28;20127;-64
2021/12/04 02:25:39;;;;;;;1.30;1.20;;;;;;;-11.79;93.49;101255.31;5071881;28;20139;-64
2021/12/04 02:28:08;;;;;;;1.80;1.70;;;;;;;-11.88;93.54;101260.81;5071891;28;20076;-64
2021/12/04 02:30:38;;;;;;;1.77;1.60;;;;;;;-11.87;92.97;101261.66;5071614;28;20044;-64
2021/12/04 02:33:12;;;;;;;0.80;0.80;;;;;;;-11.72;92.45;101266.47;5072049;28;20051;-64
2021/12/04 02:35:39;;;;;;;3.55;1.90;;;;;;;-11.78;92.07;101264.53;5071875;28;20134;-64
2021/12/04 02:38:08;;;;;;;2.17;1.98;;;;;;;-11.88;93.10;101267.47;5071323;28;20135;-63
2021/12/04 02:40:35;;;;;;;2.63;2.00;;;;;;;-11.94;93.01;101275.59;5071679;28;20049;-62
2021/12/04 02:43:02;;;;;;;1.70;1.23;;;;;;;-11.91;93.57;101282.41;5071520;28;20128;-64
2021/12/04 02:45:29;;;;;;;1.50;1.40;;;;;;;-11.89;92.94;101280.84;5071504;28;20127;-64
2021/12/04 02:47:56;;;;;;;1.35;1.27;;;;;;;-11.78;92.46;101284.63;5071735;28;20171;-64
2021/12/04 02:50:23;;;;;;;2.63;1.33;;;;;;;-11.83;92.59;101291.09;5071946;28;20406;-64
2021/12/04 02:52:50;;;;;;;1.92;1.23;;;;;;;-11.88;92.61;101295.09;5071565;28;20133;-64
2021/12/04 02:55:19;;;;;;;1.30;1.02;;;;;;;-11.91;92.56;101294.97;5071482;28;20135;-63
2021/12/04 02:57:47;;;;;;;2.53;1.63;;;;;;;-12.04;92.57;101291.03;5071563;28;20131;-63
2021/12/04 03:00:19;;;;;;;2.70;1.50;;;;;;;-12.04;92.91;101293.56;5071817;28;20396;-63
2021/12/04 03:02:46;;;;;;;4.85;1.40;;;;;;;-12.02;92.54;101296.09;5071496;28;20441;-63
2021/12/04 03:05:13;;;;;;;;;;;;;;;-11.95;92.32;101296.44;5072172;28;20494;-63
2021/12/04 03:07:40;;;;;;;1.50;1.40;;;;;;;-12.08;92.21;101294.19;5071422;28;19920;-63
2021/12/04 03:10:09;;;;;;;3.80;1.38;;;;;;;-12.10;92.48;101299.16;5071197;28;20072;-64
2021/12/04 03:12:40;;;;;;;5.28;1.92;;;;;;;-12.10;93.04;101303.28;5071439;28;20052;-63
2021/12/04 03:15:08;;;;;;;2.83;2.10;;;;;;;-12.16;92.82;101301.38;5071302;28;20045;-62
2021/12/04 03:17:36;;;;;;;1.67;1.38;;;;;;;-12.21;92.98;101312.84;5071241;28;20144;-63
2021/12/04 03:20:03;;;;;;;;;;;;;;;-12.18;92.35;101318.00;5071885;28;20049;-64
2021/12/04 03:22:30;;;;;;;2.42;1.67;;;;;;;-12.22;92.31;101318.66;5074640;28;20018;-63
2021/12/04 03:24:57;;;;;;;;;;;;;;;-12.17;92.40;101319.72;5075264;28;20432;-64
2021/12/04 03:27:26;;;;;;;4.82;1.65;;;;;;;-12.07;91.92;101324.38;5074790;28;19920;-62
2021/12/04 03:29:57;;;;;;;1.98;1.42;;;;;;;-12.24;92.63;101326.91;5075467;28;20076;-62
2021/12/04 03:35:21;;;;;;;4.85;1.48;;;;;;;-12.27;92.54;101325.09;5065648;28;20055;-61
2021/12/04 03:43:20;;;;;;;3.15;1.65;;;;;;;-12.46;92.21;101340.91;5070383;28;20045;-62
2021/12/04 03:45:54;;;;;;;2.10;1.60;;;;;;;-12.53;92.56;101344.81;5074299;28;20063;-62
2021/12/04 03:48:50;;;;;;;1.42;1.35;;;;;;;-12.60;92.51;101350.31;5074557;28;20052;-62
2021/12/04 03:51:18;;;;;;;3.00;1.50;;;;;;;-12.54;92.34;101348.06;5074490;28;20526;-61
2021/12/04 03:53:45;;;;;;;2.15;1.80;;;;;;;-12.56;92.01;101344.66;5074411;28;20051;-62
2021/12/04 03:56:14;;;;;;;3.92;1.90;;;;;;;-12.58;92.40;101347.88;5074154;28;20551;-62
2021/12/04 03:58:41;;;;;;;2.13;1.67;;;;;;;-12.47;91.92;101353.41;5074610;28;20046;-62
2021/12/04 04:01:09;;;;;;;1.15;1.08;;;;;;;-12.60;92.00;101355.31;5074626;28;20093;-63
2021/12/04 04:03:36;;;;;;;1.88;1.75;;;;;;;-12.71;92.25;101351.44;5074168;28;20135;-62
2021/12/04 04:06:03;;;;;;;2.53;2.20;;;;;;;-12.59;91.91;101363.69;5074258;28;20051;-63
2021/12/04 04:08:31;;;;;;;4.43;1.90;;;;;;;-12.79;92.45;101353.56;5074091;28;20075;-63
2021/12/04 04:10:59;;;;;;;8.55;1.80;;;;;;;-12.64;91.84;101355.09;5074116;28;20402;-61
2021/12/04 04:13:25;;;;;;;3.25;1.60;;;;;;;-12.62;91.94;101361.03;5073825;28;20521;-63
2021/12/04 04:15:53;;;;;;;1.75;1.65;;;;;;;-12.58;91.34;101361.28;5074055;28;20123;-62
2021/12/04 04:18:21;;;;;;;2.70;1.50;;;;;;;-12.63;90.96;101364.34;5073900;28;20132;-62
2021/12/04 04:20:48;;;;;;;1.80;1.67;;;;;;;-12.71;91.32;101363.97;5073996;28;20234;-62
2021/12/04 04:23:15;;;;;;;5.28;1.63;;;;;;;-12.77;91.28;101364.50;5073853;28;20558;-62
2021/12/04 04:25:43;;;;;;;1.85;1.25;;;;;;;-12.80;91.85;101364.38;5073885;28;20075;-63
2021/12/04 04:28:10;;;;;;;1.45;1.35;;;;;;;-12.81;92.23;101369.31;5074091;28;20087;-62
2021/12/04 04:30:38;;;;;;;3.00;1.45;;;;;;;-12.87;91.89;101374.00;5073813;28;20049;-62
2021/12/04 04:33:06;;;;;;;2.85;2.65;;;;;;;-13.00;92.08;101385.06;5073607;28;20048;-64
2021/12/04 04:35:35;;;;;;;7.07;1.98;;;;;;;-13.01;91.54;101375.84;5073505;28;20074;-64
2021/12/04 04:38:25;;;;;;;4.00;2.20;;;;;;;-13.18;92.55;101383.38;5073297;28;20048;-64
2021/12/04 05:00:35;;;;;;;1.95;1.42;;;;;;;-13.43;92.46;101428.00;5048656;28;20048;-64
2021/12/04 05:11:20;;;;;;;1.40;1.30;;;;;;;-13.40;93.38;101438.16;5073064;28;20059;-63
2021/12/04 05:13:47;;;;;;;1.42;1.33;;;;;;;-13.36;92.22;101440.03;5072726;28;20044;-64
2021/12/04 05:16:15;;;;;;;1.80;1.70;;;;;;;-13.26;92.26;101448.88;5072709;28;20699;-64
2021/12/04 05:18:50;;;;;;;8.60;1.35;;;;;;;-13.22;92.41;101454.13;5072740;28;20044;-63
2021/12/04 05:21:17;;;;;;;2.92;2.00;;;;;;;-13.19;91.74;101458.41;5072702;28;20604;-64
2021/12/04 05:23:48;;;;;;;2.05;1.55;;;;;;;-13.23;91.76;101459.91;5072575;28;20045;-63
2021/12/04 05:26:18;;;;;;;3.05;2.30;;;;;;;-13.15;91.09;101467.84;5072639;28;20139;-64
2021/12/04 05:28:46;;;;;;;2.55;2.22;;;;;;;-13.13;91.45;101470.41;5073172;28;20135;-63
2021/12/04 05:31:14;;;;;;;1.60;1.50;;;;;;;-13.16;90.74;101476.09;5072475;28;20139;-63
2021/12/04 05:33:41;;;;;;;1.77;1.67;;;;;;;-13.08;90.70;101472.34;5072149;28;20044;-64
2021/12/04 05:36:09;;;;;;;3.45;2.28;;;;;;;-13.18;91.16;101480.16;5072041;28;20144;-63
2021/12/04 05:38:37;;;;;;;2.05;1.58;;;;;;;-13.20;91.09;101477.59;5072195;28;20139;-63
2021/12/04 05:41:06;;;;;;;7.45;1.88;;;;;;;-13.23;90.69;101477.44;5072285;28;20047;-61
2021/12/04 05:43:34;;;;;;;1.48;1.38;;;;;;;-13.16;90.88;101486.97;5072022;28;20080;-62
2021/12/04 05:46:08;;;;;;;1.08;1.08;;;;;;;-13.18;90.75;101476.03;5072355;28;20048;-62
2021/12/04 05:48:42;;;;;;;1.88;1.42;;;;;;;-13.24;91.00;101479.84;5072257;28;20063;-62
2021/12/04 05:53:58;;;;;;;2.42;1.73;;;;;;;-13.30;90.62;101487.09;5072328;28;20076;-62
2021/12/04 05:56:28;;;;;;;1.80;1.63;;;;;;;-13.40;90.76;101493.25;5072213;28;20051;-62
2021/12/04 05:58:55;;;;;;;4.28;1.83;;;;;;;-13.52;90.63;101495.94;5072273;28;20143;-60
2021/12/04 06:01:23;;;;;;;1.85;1.75;;;;;;;-13.61;91.01;101501.31;5072595;28;20076;-63
2021/12/04 06:03:50;;;;;;;2.15;1.95;;;;;;;-13.52;91.35;101500.09;5072110;28;20145;-63
2021/12/04 06:06:17;;;;;;;;;;;;;;;-13.43;90.51;101500.59;5072515;28;20139;-62
2021/12/04 06:08:45;;;;;;;2.00;1.60;;;;;;;-13.52;89.83;101500.94;5072215;28;19925;-62
2021/12/04 06:11:11;;;;;;;;;;;;;;;-13.56;91.02;101509.09;5072498;28;20068;-62
2021/12/04 06:13:40;;;;;;;1.27;1.17;;;;;;;-13.60;90.85;101509.69;5071636;28;20008;-62
2021/12/04 06:16:07;;;;;;;1.77;1.63;;;;;;;-13.74;91.11;101516.44;5071864;28;20135;-62
2021/12/04 06:18:34;;;;;;;2.10;1.33;;;;;;;-13.66;91.28;101519.38;5071860;28;20080;-61
2021/12/04 06:23:46;;;;;;;2.20;2.00;;;;;;;-13.84;91.58;101529.22;5071737;28;20093;-62
2021/12/04 06:26:13;;;;;;;;;;;;;;;-13.88;91.91;101523.16;5072155;28;20155;-62
2021/12/04 06:28:41;;;;;;;;;;;;;;;-13.94;91.95;101535.34;5072810;28;20011;-62
2021/12/04 06:31:09;;;;;;;1.63;1.52;;;;;;;-14.01;92.82;101537.41;5071888;28;19921;-65
2021/12/04 06:33:38;;;;;;;1.27;1.20;;;;;;;-13.89;92.09;101541.47;5071481;28;20090;-62
2021/12/04 06:36:06;;;;;;;1.55;1.38;;;;;;;-14.01;91.69;101539.91;5071639;28;20048;-61
2021/12/04 06:38:34;;;;;;;2.40;1.63;;;;;;;-14.27;91.86;101545.13;5071464;28;20413;-62
2021/12/04 06:41:01;;;;;;;2.45;1.88;;;;;;;-14.33;92.87;101551.41;5071683;28;20582;-62
2021/12/04 06:43:28;;;;;;;2.47;2.10;;;;;;;-14.36;92.30;101553.72;5071296;28;20142;-62
2021/12/04 06:45:59;;;;;;;1.13;1.13;;;;;;;-14.30;92.16;101554.13;5071804;28;20136;-62
2021/12/04 06:48:34;;;;;;;2.78;1.70;;;;;;;-14.51;91.84;101561.22;5071954;28;20053;-62
2021/12/04 06:51:05;;;;;;;2.28;1.40;;;;;;;-14.69;91.44;101553.53;5071708;28;20044;-63
2021/12/04 06:53:37;;;;;;;2.28;1.83;;;;;;;-14.98;93.18;101557.63;5071560;28;20515;-61
2021/12/04 06:56:07;;;;;;;1.92;1.52;;;;;;;-14.85;91.96;101564.22;5073091;28;20094;-61
2021/12/04 06:58:35;;;;;;;2.55;2.03;;;;;;;-15.09;92.06;101561.09;5075201;28;20398;-62
2021/12/04 07:01:05;;;;;;;2.17;1.52;;;;;;;-15.19;93.31;101574.66;5075337;28;20052;-62
2021/12/04 07:03:32;;;;;;;2.10;1.90;;;;;;;-14.90;93.48;101570.56;5074990;28;20490;-62
2021/12/04 07:05:59;;;;;;;6.00;1.95;;;;;;;-14.92;92.20;101572.13;5075602;28;20131;-62
2021/12/04 07:08:26;;;;;;;1.70;1.50;;;;;;;-14.98;92.07;101580.09;5075596;28;20131;-62
2021/12/04 07:10:53;;;;;;;9.40;2.05;;;;;;;-15.03;91.95;101585.56;5075277;28;20135;-61
2021/12/04 07:13:20;;;;;;;4.80;2.05;;;;;;;-14.97;91.74;101583.47;5074773;28;20110;-61
2021/12/04 07:15:47;;;;;;;2.08;1.65;;;;;;;-14.77;91.40;101582.16;5074790;28;20140;-62
2021/12/04 07:18:15;;;;;;;;;;;;;;;-14.97;90.46;101586.84;5075265;28;20552;-61
2021/12/04 07:20:42;;;;;;;1.55;1.45;;;;;;;-14.94;91.23;101596.16;5075029;28;19928;-61
2021/12/04 07:23:09;;;;;;;2.30;2.10;;;;;;;-14.89;90.78;101601.44;5074625;28;20597;-62
2021/12/04 07:25:36;;;;;;;3.15;2.08;;;;;;;-14.79;91.47;101593.72;5074737;28;20083;-62
2021/12/04 07:28:03;;;;;;;2.28;2.08;;;;;;;-14.87;91.88;101599.88;5074855;28;20051;-63
2021/12/04 07:30:30;;;;;;;1.90;1.70;;;;;;;-14.59;91.13;101602.41;5075318;28;20076;-62
2021/12/04 07:32:57;;;;;;;4.25;2.03;;;;;;;-14.63;90.44;101593.00;5074840;28;20091;-61
2021/12/04 07:35:25;;;;;;;2.80;2.13;;;;;;;-14.88;90.99;101599.00;5074784;28;20506;-60
2021/12/04 07:37:52;;;;;;;3.30;2.45;;;;;;;-14.81;91.64;101598.63;5074497;28;20139;-62
2021/12/04 07:40:20;;;;;;;4.63;2.20;;;;;;;-14.93;91.46;101602.84;5074883;28;20112;-62
2021/12/04 07:42:46;;;;;;;;;;;;;;;-15.18;91.62;101601.34;5074827;28;20131;-62
2021/12/04 07:45:14;;;;;;;3.33;2.25;;;;;;;-15.35;92.89;101604.44;5074535;28;19920;-62
2021/12/04 07:47:40;;;;;;;;;;;;;;;-15.23;92.64;101606.81;5075135;28;20061;-62
2021/12/04 07:50:09;;;;;;;3.70;2.45;;;;;;;-14.99;91.92;101608.34;5074655;28;20007;-61
2021/12/04 07:52:39;;;;;;;2.47;2.08;;;;;;;-14.92;90.40;101610.44;5074340;28;20051;-62
2021/12/04 07:55:07;;;;;;;2.80;2.58;;;;;;;-14.94;90.25;101611.13;5074347;28;20051;-62
2021/12/04 07:57:34;;;;;;;3.92;2.13;;;;;;;-15.08;89.90;101609.41;5074264;28;20144;-62
2021/12/04 08:00:02;;;;;;;9.63;2.90;;;;;;;-15.32;89.16;101616.22;5074363;28;20045;-62
2021/12/04 08:02:29;;;;;;;2.55;2.35;;;;;;;-15.46;88.37;101615.34;5074254;28;20123;-62
2021/12/04 08:04:55;;;;;;;3.53;2.15;;;;;;;-15.70;90.22;101623.03;5074233;28;20143;-63
2021/12/04 08:07:22;;;;;;;3.20;2.10;;;;;;;-15.54;89.86;101624.84;5074011;28;20479;-61
2021/12/04 08:09:51;;;;;;;1.65;1.50;;;;;;;-15.49;89.17;101625.13;5074045;28;20076;-61
2021/12/04 08:12:18;;;;;;;2.15;1.95;;;;;;;-15.55;87.58;101629.75;5073745;28;20075;-62
2021/12/04 08:14:45;;;;;;;3.05;1.92;;;;;;;-15.81;86.15;101634.81;5073712;28;20143;-61
2021/12/04 08:17:12;;;;;;;2.10;1.90;;;;;;;-15.95;86.77;101639.66;5074215;28;20072;-61
2021/12/04 08:19:40;;;;;;;2.22;1.98;;;;;;;-16.16;88.52;101646.56;5073981;28;20569;-60
2021/12/04 08:22:07;;;;;;;2.70;2.08;;;;;;;-16.17;87.68;101645.72;5073649;28;20068;-61
2021/12/04 08:24:34;;;;;;;3.35;1.95;;;;;;;-16.07;87.94;101653.03;5073809;28;20063;-61
2021/12/04 08:27:03;;;;;;;4.68;2.90;;;;;;;-15.89;88.02;101647.53;5073843;28;20055;-60
2021/12/04 08:29:30;;;;;;;2.97;2.22;;;;;;;-15.70;87.48;101650.47;5073841;28;20483;-60
2021/12/04 08:31:57;;;;;;;1.33;1.27;;;;;;;-15.57;90.31;101652.09;5073861;28;20131;-61
2021/12/04 08:34:24;;;;;;;3.08;1.85;;;;;;;-15.45;90.90;101657.88;5073726;28;20052;-61
2021/12/04 08:36:52;;;;;;;;;;;;;;;-15.38;89.73;101654.16;5074119;28;20105;-61
2021/12/04 08:39:21;;;;;;;1.20;1.20;;;;;;;-15.27;90.82;101659.81;5073242;28;19920;-61
2021/12/04 08:41:48;;;;;;;2.58;2.10;;;;;;;-15.22;91.53;101660.97;5073330;28;20136;-61
2021/12/04 08:44:18;;;;;;;2.20;1.80;;;;;;;-15.09;90.95;101668.47;5073297;28;20143;-60
2021/12/04 08:46:46;;;;;;;4.25;2.40;;;;;;;-15.18;90.74;101672.88;5073479;28;20048;-62
2021/12/04 08:49:13;;;;;;;1.90;1.80;;;;;;;-14.93;90.56;101671.16;5073462;28;20140;-60
2021/12/04 08:51:41;;;;;;;2.92;2.45;;;;;;;-15.04;90.62;101673.75;5073152;28;20067;-61
2021/12/04 08:54:10;;;;;;;4.63;1.63;;;;;;;-14.71;90.88;101675.84;5073238;28;20482;-61
2021/12/04 08:56:37;;;;;;;4.22;2.50;;;;;;;-14.72;90.79;101673.25;5073179;28;20143;-61
2021/12/04 08:59:04;;;;;;;;;;;;;;;-14.40;90.68;101670.19;5073985;28;20485;-61
2021/12/04 09:01:35;;;;;;;2.50;2.30;;;;;;;-14.29;90.60;101675.84;5073011;28;20015;-60
2021/12/04 09:04:07;;;;;;;3.60;2.70;;;;;;;-14.37;90.78;101675.38;5073505;28;20113;-60
2021/12/04 09:06:35;;;;;;;4.82;2.85;;;;;;;-14.32;90.41;101681.50;5073084;28;20135;-61
2021/12/04 09:09:03;;;;;;;2.10;1.95;;;;;;;-14.11;90.90;101683.56;5073267;28;20137;-60
2021/12/04 09:11:34;;;;;;;2.90;2.60;;;;;;;-14.12;90.67;101681.84;5072792;28;20406;-60
2021/12/04 09:14:02;;;;;;;1.75;1.65;;;;;;;-14.11;89.93;101684.44;5072542;28;20144;-61
2021/12/04 09:16:29;;;;;;;4.25;2.85;;;;;;;-14.22;89.92;101690.44;5072909;28;20136;-61
2021/12/04 09:18:57;;;;;;;5.50;3.08;;;;;;;-14.22;90.44;101690.44;5071939;28;20050;-62
2021/12/04 09:21:26;;;;;;;3.72;2.80;;;;;;;-14.17;90.17;101694.06;5072725;28;20132;-61
2021/12/04 09:24:02;;;;;;;4.75;3.00;;;;;;;-14.28;89.84;101695.03;5072734;28;20092;-61
2021/12/04 09:26:39;;;;;;;6.75;2.55;;;;;;;-14.22;89.38;101695.44;5072488;28;20052;-61
2021/12/04 09:29:13;;;;;;;3.22;2.58;;;;;;;-14.21;88.95;101697.16;5072640;28;20110;-62
2021/12/04 09:40:35;;;;;;;3.67;2.28;;;;;;;-14.37;89.33;101695.38;5089636;28;20508;-62
2021/12/04 10:02:29;;;;;;;;;;;;;;;-14.02;89.25;101723.25;5089396;28;20052;-62
2021/12/04 10:13:43;;;;;;;4.55;2.60;;;;;;;-13.91;88.26;101725.63;5089026;28;20055;-61
2021/12/04 10:19:19;;;;;;;2.85;2.38;;;;;;;-13.91;88.31;101727.28;5088828;28;20055;-63
2021/12/04 10:22:03;;;;;;;2.22;1.60;;;;;;;-14.02;88.38;101735.75;5088663;28;20044;-63
2021/12/04 10:33:11;;;;;;;3.20;1.60;;;;;;;-13.88;88.26;101742.47;5070762;28;19966;-64
2021/12/04 10:35:40;;;;;;;7.00;3.35;;;;;;;-13.96;89.20;101746.16;5088504;28;20060;-62
2021/12/04 10:38:11;;;;;;;6.63;3.45;;;;;;;-13.91;88.33;101748.16;5088537;28;20044;-62
2021/12/04 10:40:42;;;;;;;2.30;1.88;;;;;;;-13.78;88.32;101747.25;5088733;28;20048;-62
2021/12/04 10:43:14;;;;;;;6.97;3.13;;;;;;;-13.80;88.08;101750.44;5088533;28;20450;-64
2021/12/04 10:45:54;;;;;;;4.05;2.72;;;;;;;-13.79;88.53;101754.66;5088749;28;20048;-63
2021/12/04 10:48:24;;;;;;;5.13;3.10;;;;;;;-13.84;88.56;101752.75;5077237;28;20047;-63
2021/12/04 10:51:02;;;;;;;4.53;2.67;;;;;;;-13.60;88.03;101762.47;5074941;28;20058;-64
2021/12/04 10:53:36;;;;;;;4.60;2.95;;;;;;;-13.64;88.11;101758.94;5074768;28;20045;-62
2021/12/04 10:56:21;;;;;;;3.58;2.03;;;;;;;-13.62;87.88;101764.88;5074566;28;20118;-63
2021/12/04 10:59:10;;;;;;;2.17;2.05;;;;;;;-13.55;87.73;101758.59;5075096;28;20097;-64
2021/12/04 11:01:47;;;;;;;4.35;3.25;;;;;;;-13.69;87.99;101764.44;5074687;28;20051;-62
2021/12/04 11:04:23;;;;;;;3.22;2.28;;;;;;;-13.64;87.99;101765.56;5074652;28;20048;-63
2021/12/04 11:21:27;;;;;;;9.20;3.80;;;;;;;-13.68;86.92;101777.03;5074472;28;20177;-62
2021/12/04 11:40:35;;;;;;;2.10;1.90;;;;;;;-14.27;89.15;101790.16;5062928;28;20053;-62
2021/12/04 11:43:08;;;;;;;2.22;2.03;;;;;;;-14.18;88.67;101794.84;5073686;28;20086;-62
2021/12/04 11:45:45;;;;;;;5.15;3.55;;;;;;;-14.24;88.03;101799.50;5073845;28;20048;-62
2021/12/04 11:48:14;;;;;;;6.35;4.13;;;;;;;-14.40;88.95;101796.81;5073925;28;20388;-62
2021/12/04 11:50:43;;;;;;;7.55;3.85;;;;;;;-14.35;88.34;101795.47;5073776;28;20044;-62
2021/12/04 11:53:16;;;;;;;3.70;2.55;;;;;;;-14.29;88.48;101796.69;5073648;28;20182;-61
2021/12/04 11:55:45;;;;;;;3.08;1.65;;;;;;;-14.27;88.20;101789.31;5073501;28;20052;-61
2021/12/04 11:58:23;;;;;;;2.08;1.92;;;;;;;-14.43;87.99;101790.00;5073507;28;20423;-61
2021/12/04 12:00:54;;;;;;;4.72;2.67;;;;;;;-14.57;87.60;101794.16;5072830;28;20055;-61
2021/12/04 12:03:24;;;;;;;2.08;1.88;;;;;;;-14.70;89.25;101794.13;5073304;28;20098;-62
2021/12/04 12:05:54;;;;;;;2.05;1.73;;;;;;;-14.77;89.09;101797.91;5073698;28;20052;-61
2021/12/04 12:08:25;;;;;;;6.47;3.08;;;;;;;-14.89;88.85;101794.63;5073556;28;20053;-62
2021/12/04 12:10:54;;;;;;;4.32;3.08;;;;;;;-14.92;88.46;101801.91;5073412;28;20040;-61
2021/12/04 12:13:32;;;;;;;5.30;3.05;;;;;;;-15.01;88.75;101802.16;5073075;28;20399;-61
2021/12/04 12:16:03;;;;;;;7.35;2.67;;;;;;;-15.06;88.53;101803.50;5072923;28;20052;-63
2021/12/04 12:18:42;;;;;;;4.55;3.30;;;;;;;-15.15;88.00;101811.25;5072957;28;20052;-62
2021/12/04 12:21:11;;;;;;;7.28;4.07;;;;;;;-15.39;88.63;101815.50;5073164;28;20396;-62
2021/12/04 12:26:48;;;;;;;4.50;3.25;;;;;;;-15.30;89.28;101824.38;5072943;28;20102;-62
2021/12/04 12:32:54;;;;;;;4.28;3.20;;;;;;;-15.19;88.41;101825.94;5072879;28;20157;-62
2021/12/04 12:38:16;;;;;;;4.75;2.88;;;;;;;-15.50;87.50;101826.41;5072818;28;20063;-65
2021/12/04 12:40:44;;;;;;;6.32;2.85;;;;;;;-15.53;88.74;101827.84;5072682;28;20407;-61
2021/12/04 12:43:16;;;;;;;3.25;2.85;;;;;;;-15.38;88.50;101823.88;5072126;28;20397;-62
2021/12/04 12:45:54;;;;;;;6.82;3.22;;;;;;;-15.41;87.66;101829.53;5072462;28;20080;-64
2021/12/04 12:48:21;;;;;;;3.97;2.55;;;;;;;-15.37;88.28;101823.94;5072381;28;20051;-62
2021/12/04 12:50:49;;;;;;;;;;;;;;;-15.47;87.28;101825.72;5072805;28;20151;-63
2021/12/04 12:53:19;;;;;;;2.47;2.28;;;;;;;-15.45;88.09;101822.56;5072263;28;19920;-61
2021/12/04 12:55:49;;;;;;;3.10;2.85;;;;;;;-15.62;88.49;101828.91;5072395;28;20080;-66
2021/12/04 12:58:21;;;;;;;3.17;2.50;;;;;;;-15.51;87.53;101826.28;5061856;28;20513;-62
2021/12/04 13:12:01;;;;;;;4.63;3.38;;;;;;;-16.17;88.13;101840.13;5030956;28;20479;-64
2021/12/04 13:14:30;;;;;;;6.38;4.20;;;;;;;-16.25;86.92;101841.22;5064362;28;20045;-63
2021/12/04 13:17:03;;;;;;;14.27;5.63;;;;;;;-16.33;87.52;101838.19;5052080;28;20074;-62
2021/12/04 13:19:34;;;;;;;9.05;4.55;;;;;;;-16.35;87.95;101836.34;5052049;28;20073;-61
2021/12/04 13:22:06;;;;;;;7.18;4.63;;;;;;;-16.35;87.87;101837.22;5051753;28;20398;-62
2021/12/04 13:24:38;;;;;;;7.97;5.28;;;;;;;-16.51;87.40;101841.88;5052231;28;20037;-60
2021/12/04 13:29:38;;;;;;;6.43;4.22;;;;;;;-16.69;88.18;101852.25;5051942;28;20048;-63
2021/12/04 13:32:06;;;;;;;7.05;4.05;;;;;;;-16.72;87.61;101843.69;5064366;28;20051;-61
2021/12/04 13:34:34;;;;;;;6.18;4.25;;;;;;;-16.60;88.60;101848.69;5071875;28;20509;-61
2021/12/04 13:37:03;;;;;;;5.18;3.92;;;;;;;-16.54;88.06;101852.50;5071600;28;20130;-61
2021/12/04 13:39:31;;;;;;;4.15;3.53;;;;;;;-16.68;87.94;101858.09;5071569;28;20044;-62
2021/12/04 13:41:58;;;;;;;6.05;3.30;;;;;;;-16.54;86.97;101864.94;5071932;28;20421;-61
2021/12/04 13:44:28;;;;;;;4.45;2.70;;;;;;;-16.51;87.48;101865.16;5072112;28;20117;-62
2021/12/04 13:47:00;;;;;;;4.82;2.70;;;;;;;-16.53;86.59;101863.31;5071910;28;20502;-63
2021/12/04 13:49:33;;;;;;;4.68;2.75;;;;;;;-16.62;87.04;101863.50;5072021;28;20040;-62
2021/12/04 13:52:06;;;;;;;2.20;2.03;;;;;;;-16.46;87.42;101866.34;5071652;28;20409;-61
2021/12/04 13:54:35;;;;;;;6.97;2.95;;;;;;;-16.36;87.46;101871.97;5071556;28;20128;-62
2021/12/04 13:57:07;;;;;;;2.13;1.92;;;;;;;-16.25;87.32;101871.13;5071696;28;20100;-62
2021/12/04 13:59:34;;;;;;;2.65;2.30;;;;;;;-16.36;87.79;101875.38;5072216;28;20068;-61
2021/12/04 14:02:01;;;;;;;4.18;3.10;;;;;;;-16.26;88.41;101881.84;5071402;28;20131;-61
2021/12/04 14:04:28;;;;;;;2.05;1.95;;;;;;;-16.32;87.97;101876.44;5071389;28;20111;-60
2021/12/04 14:06:56;;;;;;;;;;;;;;;-16.42;87.94;101879.88;5053913;28;20135;-62